Time;durP1;ratioP1;P1;durP2;ratioP2;P2;SDS_P1;SDS_P2;PMS_P1;PMS_P2;Temp;Humidity;BMP_temperature;BMP_pressure;BME280_temperature;BME280_humidity;BME280_pressure;Samples;Min_cycle;Max_cycle;Signal;HPM_P1;HPM_P2
2021/12/22 00:00:19;;;;;;;10.15;4.63;;;;;;;-0.56;51.21;100736.13;3155913;28;20060;-69
2021/12/22 00:01:52;;;;;;;9.07;4.82;;;;;;;-0.53;51.11;100742.19;3152749;28;20056;-69
2021/12/22 00:03:25;;;;;;;6.90;4.20;;;;;;;-0.79;51.33;100700.00;3156012;28;20113;-69
2021/12/22 00:04:57;;;;;;;9.83;5.40;;;;;;;-0.57;50.98;100739.53;3157061;28;20048;-69
2021/12/22 00:06:31;;;;;;;9.82;4.28;;;;;;;-0.63;51.28;100740.31;3154645;28;20051;-69
2021/12/22 00:08:03;;;;;;;7.63;4.30;;;;;;;-0.60;51.33;100742.06;3156610;28;20056;-68
2021/12/22 00:09:35;;;;;;;8.55;4.65;;;;;;;-0.59;51.40;100741.19;3156528;28;20048;-68
2021/12/22 00:11:10;;;;;;;11.10;4.90;;;;;;;-0.60;51.44;100739.50;3155595;28;20081;-68
2021/12/22 00:12:43;;;;;;;10.90;4.93;;;;;;;-0.71;51.24;100729.06;3155781;28;20044;-68
2021/12/22 00:14:13;;;;;;;;;;;;;;;-0.82;51.59;100749.38;3155606;28;20055;-68
2021/12/22 00:15:45;;;;;;;11.40;5.15;;;;;;;-0.80;51.82;100746.84;3153626;28;19920;-68
2021/12/22 00:17:17;;;;;;;9.35;5.20;;;;;;;-0.84;51.72;100725.47;3156762;28;20060;-69
2021/12/22 00:18:49;;;;;;;11.95;5.50;;;;;;;-0.74;51.67;100742.72;3154501;28;20150;-69
2021/12/22 00:20:21;;;;;;;8.98;4.85;;;;;;;-0.77;51.77;100734.09;3154038;28;20052;-69
2021/12/22 00:21:52;;;;;;;9.93;4.47;;;;;;;-0.76;51.68;100736.69;3156661;28;20160;-68
2021/12/22 00:23:24;;;;;;;10.82;5.40;;;;;;;-0.77;51.55;100737.56;3155399;28;20052;-68
2021/12/22 00:24:56;;;;;;;9.73;5.03;;;;;;;-0.77;51.84;100744.34;3156698;28;20055;-68
2021/12/22 00:26:27;;;;;;;11.55;5.05;;;;;;;-0.82;51.97;100736.59;3155023;28;20077;-69
2021/12/22 00:28:02;;;;;;;11.88;5.40;;;;;;;-0.76;51.98;100746.06;3157946;28;20669;-69
2021/12/22 00:29:34;;;;;;;10.85;5.60;;;;;;;-0.79;52.12;100754.56;3154718;28;20052;-68
2021/12/22 00:31:11;;;;;;;13.60;6.18;;;;;;;-0.85;52.08;100745.94;3155065;28;20097;-68
2021/12/22 00:32:50;;;;;;;14.68;5.93;;;;;;;-0.86;52.08;100745.03;3154790;28;20052;-69
2021/12/22 00:34:25;;;;;;;13.60;5.50;;;;;;;-0.96;52.14;100730.41;3155460;28;20570;-68
2021/12/22 00:35:57;;;;;;;9.98;5.43;;;;;;;-0.89;52.11;100744.13;3153689;28;20074;-69
2021/12/22 00:37:30;;;;;;;12.18;5.40;;;;;;;-0.89;52.30;100751.81;3156771;28;20087;-69
2021/12/22 00:39:00;;;;;;;10.55;4.93;;;;;;;-0.90;52.29;100756.06;3154024;28;20421;-68
2021/12/22 00:40:32;;;;;;;10.27;5.03;;;;;;;-0.94;52.34;100747.50;3156287;28;20046;-68
2021/12/22 00:42:05;;;;;;;14.70;5.82;;;;;;;-0.92;52.41;100748.38;3151288;28;20504;-69
2021/12/22 00:43:39;;;;;;;13.00;5.53;;;;;;;-0.98;52.31;100744.84;3146676;28;20435;-68
2021/12/22 00:45:11;;;;;;;11.27;5.43;;;;;;;-0.98;52.72;100748.25;3148006;28;20048;-67
2021/12/22 00:46:43;;;;;;;10.98;5.43;;;;;;;-1.06;52.53;100736.22;3145851;28;20576;-67
2021/12/22 00:48:15;;;;;;;10.35;5.20;;;;;;;-1.01;52.62;100747.34;3145738;28;20067;-67
2021/12/22 00:49:48;;;;;;;10.02;5.60;;;;;;;-0.98;52.68;100753.38;3146449;28;20059;-68
2021/12/22 00:51:20;;;;;;;10.77;5.60;;;;;;;-1.02;52.64;100754.16;3145801;28;20174;-67
2021/12/22 00:52:52;;;;;;;10.05;5.85;;;;;;;-1.03;52.69;100751.59;3146520;28;20320;-67
2021/12/22 00:54:24;;;;;;;12.60;5.80;;;;;;;-1.02;52.84;100754.16;3144625;28;20052;-67
2021/12/22 00:55:56;;;;;;;13.63;6.72;;;;;;;-1.05;52.79;100758.38;3145482;28;20044;-67
2021/12/22 00:57:31;;;;;;;11.27;5.78;;;;;;;-1.08;52.88;100759.19;3143668;28;20051;-67
2021/12/22 00:59:04;;;;;;;16.58;5.45;;;;;;;-1.07;52.92;100760.03;3144955;28;20051;-68
2021/12/22 01:00:37;;;;;;;12.65;6.18;;;;;;;-1.09;53.02;100756.59;3144879;28;20509;-67
2021/12/22 01:02:11;;;;;;;13.60;5.50;;;;;;;-1.10;52.87;100759.97;3144363;28;20121;-68
2021/12/22 01:03:43;;;;;;;10.95;5.53;;;;;;;-1.39;52.98;100715.19;3145533;28;20047;-68
2021/12/22 01:05:17;;;;;;;12.10;5.75;;;;;;;-1.11;53.12;100755.72;3147068;28;20117;-67
2021/12/22 01:06:49;;;;;;;10.40;5.50;;;;;;;-1.17;53.02;100754.75;3144174;28;21008;-67
2021/12/22 01:08:21;;;;;;;11.05;5.93;;;;;;;-1.20;53.37;100752.16;3143863;28;20078;-68
2021/12/22 01:09:53;;;;;;;11.45;5.65;;;;;;;-1.16;53.20;100758.16;3145367;28;20048;-67
2021/12/22 01:11:25;;;;;;;11.68;5.50;;;;;;;-1.22;53.09;100747.84;3145711;28;20054;-67
2021/12/22 01:12:59;;;;;;;10.35;5.38;;;;;;;-1.45;53.24;100709.97;3144820;28;20048;-67
2021/12/22 01:14:34;;;;;;;11.73;5.95;;;;;;;-1.19;53.12;100761.53;3145583;28;20047;-67
2021/12/22 01:16:06;;;;;;;11.48;6.10;;;;;;;-1.25;53.27;100750.34;3146656;28;20050;-67
2021/12/22 01:17:42;;;;;;;12.18;5.70;;;;;;;-1.23;53.27;100756.34;3146658;28;20064;-67
2021/12/22 01:19:19;;;;;;;10.90;5.40;;;;;;;-1.27;53.18;100757.09;3143437;28;20450;-67
2021/12/22 01:21:01;;;;;;;9.77;5.43;;;;;;;-1.28;53.46;100758.81;3143981;28;20048;-67
2021/12/22 01:22:46;;;;;;;11.82;5.40;;;;;;;-1.30;53.21;100755.38;3144722;28;20152;-68
2021/12/22 01:24:28;;;;;;;11.50;5.20;;;;;;;-1.31;53.43;100753.66;3145365;28;20083;-67
2021/12/22 01:26:03;;;;;;;9.52;5.20;;;;;;;-1.34;53.37;100761.25;3144166;28;20883;-68
2021/12/22 01:27:40;;;;;;;10.00;4.93;;;;;;;-1.33;53.33;100752.78;3145260;28;20048;-68
2021/12/22 01:29:12;;;;;;;11.25;4.88;;;;;;;-1.39;53.51;100752.63;3145247;28;20154;-68
2021/12/22 01:30:48;;;;;;;11.07;5.07;;;;;;;-1.34;53.35;100756.16;3144000;28;20090;-68
2021/12/22 01:32:19;;;;;;;7.80;4.88;;;;;;;-1.40;53.30;100754.34;3143968;28;20087;-68
2021/12/22 01:33:51;;;;;;;10.52;4.90;;;;;;;-1.36;53.23;100757.84;3146478;28;20477;-68
2021/12/22 01:35:26;;;;;;;9.20;5.15;;;;;;;-1.34;53.32;100760.41;3145470;28;20135;-68
2021/12/22 01:36:58;;;;;;;8.18;4.43;;;;;;;-1.38;53.34;100755.22;3147223;28;20052;-67
2021/12/22 01:38:30;;;;;;;11.43;4.35;;;;;;;-1.38;53.32;100751.81;3145546;28;20375;-68
2021/12/22 01:40:02;;;;;;;7.63;3.83;;;;;;;-1.90;53.53;100664.00;3145781;28;20066;-68
2021/12/22 01:41:34;;;;;;;8.30;4.25;;;;;;;-1.40;53.16;100743.25;3144839;28;20159;-68
2021/12/22 01:43:08;;;;;;;9.45;4.57;;;;;;;-1.37;53.15;100745.88;3145411;28;20525;-68
2021/12/22 01:45:00;;;;;;;9.68;4.00;;;;;;;-1.37;53.26;100743.31;3146925;28;20058;-69
2021/12/22 01:50:37;;;;;;;9.18;4.10;;;;;;;-1.47;53.47;100749.09;3147137;28;20327;-69
2021/12/22 01:52:09;;;;;;;7.97;4.07;;;;;;;-1.51;53.52;100737.97;3148852;28;20052;-69
2021/12/22 01:53:46;;;;;;;12.52;4.28;;;;;;;-1.83;53.27;100683.72;3148937;28;20058;-69
2021/12/22 01:55:29;;;;;;;8.80;4.28;;;;;;;-1.45;53.41;100750.84;3146486;28;20880;-68
2021/12/22 01:57:08;;;;;;;8.90;4.10;;;;;;;-1.47;53.44;100751.66;3143748;28;20354;-68
2021/12/22 01:58:43;;;;;;;8.32;4.03;;;;;;;-1.46;53.40;100744.00;3146154;28;20120;-68
2021/12/22 02:00:18;;;;;;;8.45;3.95;;;;;;;-1.56;53.50;100725.94;3147365;28;20162;-67
2021/12/22 02:01:53;;;;;;;9.45;4.30;;;;;;;-1.49;53.46;100741.38;3149763;28;20121;-68
2021/12/22 02:03:25;;;;;;;8.45;4.53;;;;;;;-1.54;53.63;100732.78;3147265;28;20089;-68
2021/12/22 02:04:57;;;;;;;7.55;3.65;;;;;;;-1.50;53.32;100743.94;3147501;28;20055;-67
2021/12/22 02:06:28;;;;;;;7.70;3.90;;;;;;;-1.49;53.49;100738.84;3148045;28;20044;-67
2021/12/22 02:08:01;;;;;;;7.93;3.78;;;;;;;-1.50;53.42;100744.78;3147761;28;20094;-67
2021/12/22 02:09:53;;;;;;;7.05;3.83;;;;;;;-1.50;53.51;100739.69;3146051;28;20048;-68
2021/12/22 02:11:26;;;;;;;7.00;3.47;;;;;;;-1.54;53.67;100742.13;3147747;28;20063;-67
2021/12/22 02:12:59;;;;;;;7.93;3.58;;;;;;;-1.54;53.53;100745.53;3146792;28;20123;-67
2021/12/22 02:14:31;;;;;;;8.55;4.20;;;;;;;-1.53;53.56;100741.31;3148893;28;20491;-67
2021/12/22 02:16:08;;;;;;;7.00;3.85;;;;;;;-1.56;53.39;100737.00;3147896;28;20051;-68
2021/12/22 02:17:41;;;;;;;7.90;3.63;;;;;;;-1.54;53.52;100742.13;3147822;28;20743;-68
2021/12/22 02:19:14;;;;;;;7.53;3.85;;;;;;;-1.56;53.51;100751.47;3144953;28;20369;-68
2021/12/22 02:20:49;;;;;;;7.90;3.80;;;;;;;-1.61;53.49;100731.81;3147155;28;20501;-68
2021/12/22 02:22:22;;;;;;;8.50;3.88;;;;;;;-1.58;53.79;100735.25;3148472;28;21434;-68
2021/12/22 02:23:54;;;;;;;7.45;3.45;;;;;;;-1.61;53.48;100739.47;3145639;28;20451;-68
2021/12/22 02:25:34;;;;;;;10.45;4.03;;;;;;;-1.59;53.70;100744.63;3147798;28;20550;-68
2021/12/22 02:27:11;;;;;;;8.38;3.80;;;;;;;-1.62;53.75;100745.41;3146660;28;20058;-67
2021/12/22 02:28:46;;;;;;;9.68;4.28;;;;;;;-1.98;53.74;100693.59;3148406;28;20513;-67
2021/12/22 02:30:24;;;;;;;8.35;4.30;;;;;;;-1.67;53.63;100739.34;3149259;28;20040;-66
2021/12/22 02:32:04;;;;;;;8.55;4.32;;;;;;;-1.65;53.89;100750.47;3147750;28;20098;-67
2021/12/22 02:33:39;;;;;;;9.13;4.50;;;;;;;-1.68;53.88;100747.84;3148498;28;20055;-67
2021/12/22 02:35:12;;;;;;;9.15;4.50;;;;;;;-1.67;54.06;100754.66;3148573;28;20052;-67
2021/12/22 02:36:46;;;;;;;9.90;4.68;;;;;;;-1.68;54.01;100747.84;3146796;28;20772;-67
2021/12/22 02:38:17;;;;;;;8.10;4.10;;;;;;;-1.80;54.01;100734.84;3148474;28;20158;-67
2021/12/22 02:39:57;;;;;;;8.50;4.30;;;;;;;-1.69;53.89;100751.22;3146503;28;20052;-67
2021/12/22 02:41:31;;;;;;;7.53;3.67;;;;;;;-1.73;54.10;100749.44;3147551;28;20058;-66
2021/12/22 02:43:05;;;;;;;8.00;3.95;;;;;;;-1.85;54.16;100731.31;3148033;28;20048;-68
2021/12/22 02:44:47;;;;;;;6.80;3.45;;;;;;;-1.73;54.27;100752.00;3148959;28;20198;-68
2021/12/22 02:46:20;;;;;;;7.60;3.28;;;;;;;-1.78;54.11;100742.50;3154682;28;20048;-67
2021/12/22 02:47:53;;;;;;;5.82;3.20;;;;;;;-1.83;54.14;100734.78;3154152;28;20048;-68
2021/12/22 02:49:25;;;;;;;8.18;3.83;;;;;;;-1.80;54.21;100736.50;3155880;28;20044;-68
2021/12/22 02:50:57;;;;;;;7.18;3.67;;;;;;;-1.89;54.14;100725.31;3157025;28;20078;-68
2021/12/22 02:52:39;;;;;;;8.07;3.70;;;;;;;-1.78;54.16;100745.06;3156451;28;20542;-68
2021/12/22 02:54:16;;;;;;;7.50;3.65;;;;;;;-1.88;54.17;100733.81;3157614;28;20066;-68
2021/12/22 02:55:51;;;;;;;10.20;3.53;;;;;;;-1.83;54.20;100742.44;3156162;28;20051;-68
2021/12/22 02:57:28;;;;;;;8.48;4.32;;;;;;;-1.84;54.35;100743.25;3153162;28;20050;-67
2021/12/22 02:59:09;;;;;;;10.30;4.25;;;;;;;-1.91;54.35;100733.75;3155592;28;20233;-67
2021/12/22 03:01:00;;;;;;;7.05;3.53;;;;;;;-1.89;54.53;100745.72;3154981;28;20590;-67
2021/12/22 03:02:38;;;;;;;8.82;4.05;;;;;;;-1.95;54.54;100744.72;3157964;28;20052;-67
2021/12/22 03:04:12;;;;;;;11.13;4.03;;;;;;;-1.91;54.48;100746.53;3156849;28;20044;-66
2021/12/22 03:05:44;;;;;;;8.55;4.00;;;;;;;-2.19;54.47;100696.59;3155801;28;20051;-65
2021/12/22 03:07:18;;;;;;;12.25;3.70;;;;;;;-2.14;54.38;100707.75;3156304;28;20056;-66
2021/12/22 03:08:51;;;;;;;;;;;;;;;-2.11;54.73;100746.97;3157062;28;20051;-67
2021/12/22 03:10:24;;;;;;;11.38;3.90;;;;;;;-2.40;54.63;100695.28;3157834;28;19920;-67
2021/12/22 03:11:58;;;;;;;12.13;3.60;;;;;;;-2.01;54.63;100734.38;3156512;28;20524;-67
2021/12/22 03:13:31;;;;;;;6.88;3.70;;;;;;;-2.00;54.67;100736.13;3156302;28;20812;-67
2021/12/22 03:15:06;;;;;;;6.32;3.50;;;;;;;-2.00;54.62;100738.69;3155717;28;20052;-67
2021/12/22 03:16:42;;;;;;;9.15;3.55;;;;;;;-2.00;54.69;100733.56;3156652;28;20109;-68
2021/12/22 03:18:14;;;;;;;7.22;3.80;;;;;;;-1.99;54.62;100732.72;3158000;28;20054;-68
2021/12/22 03:19:46;;;;;;;8.02;3.85;;;;;;;-1.98;54.63;100732.78;3155801;28;20501;-66
2021/12/22 03:21:21;;;;;;;6.78;3.65;;;;;;;-1.98;54.67;100732.78;3156861;28;20048;-67
2021/12/22 03:22:53;;;;;;;10.52;4.00;;;;;;;-1.99;54.67;100732.72;3153919;28;20068;-66
2021/12/22 03:24:28;;;;;;;7.57;4.03;;;;;;;-1.99;54.63;100732.72;3155416;28;20113;-66
2021/12/22 03:26:00;;;;;;;8.73;3.97;;;;;;;-1.98;54.87;100734.44;3157556;28;20488;-67
2021/12/22 03:27:32;;;;;;;7.82;4.47;;;;;;;-2.03;54.84;100734.38;3154396;28;20497;-68
2021/12/22 03:29:03;;;;;;;9.45;4.55;;;;;;;-2.02;54.83;100738.63;3155486;28;20102;-68
2021/12/22 03:30:35;;;;;;;10.02;4.80;;;;;;;-2.00;54.79;100736.97;3157476;28;20044;-68
2021/12/22 03:32:08;;;;;;;9.35;4.63;;;;;;;-2.04;54.92;100731.78;3155037;28;20044;-68
2021/12/22 03:33:41;;;;;;;8.63;4.40;;;;;;;-2.02;55.01;100740.31;3155093;28;20043;-68
2021/12/22 03:35:17;;;;;;;12.57;4.50;;;;;;;-2.07;54.92;100730.91;3155691;28;20121;-68
2021/12/22 03:36:49;;;;;;;8.35;4.40;;;;;;;-2.03;54.88;100741.16;3155604;28;20323;-68
2021/12/22 03:38:21;;;;;;;8.60;4.28;;;;;;;-2.14;54.81;100729.03;3157489;28;20063;-68
2021/12/22 03:39:55;;;;;;;9.10;3.80;;;;;;;-2.04;55.03;100747.97;3155483;28;20513;-68
2021/12/22 03:41:26;;;;;;;8.38;3.85;;;;;;;-2.07;54.89;100748.75;3153030;28;20048;-66
2021/12/22 03:42:59;;;;;;;12.05;4.95;;;;;;;-2.47;54.79;100679.84;3156707;28;20056;-67
2021/12/22 03:44:31;;;;;;;9.48;4.20;;;;;;;-2.03;54.65;100746.28;3155686;28;20044;-66
2021/12/22 03:46:02;;;;;;;8.25;3.95;;;;;;;-2.01;54.89;100744.59;3156769;28;20056;-66
2021/12/22 03:47:35;;;;;;;8.05;4.00;;;;;;;-2.04;54.75;100735.22;3156055;28;20055;-67
2021/12/22 03:49:09;;;;;;;8.23;4.05;;;;;;;-2.04;54.69;100744.53;3154759;28;20044;-67
2021/12/22 03:50:41;;;;;;;9.27;4.40;;;;;;;-2.12;54.69;100735.03;3157480;28;20048;-67
2021/12/22 03:52:13;;;;;;;7.32;3.78;;;;;;;-2.06;54.73;100747.91;3154847;28;20036;-67
2021/12/22 03:53:45;;;;;;;8.35;3.97;;;;;;;-2.11;54.73;100744.41;3155158;28;20432;-67
2021/12/22 03:55:18;;;;;;;9.10;4.70;;;;;;;-2.07;54.64;100746.22;3156245;28;20048;-67
2021/12/22 03:56:50;;;;;;;7.40;4.07;;;;;;;-2.12;54.94;100746.94;3155774;28;20056;-67
2021/12/22 03:58:23;;;;;;;7.63;4.40;;;;;;;-2.14;54.76;100740.94;3156459;28;20052;-67
2021/12/22 03:59:57;;;;;;;8.70;4.23;;;;;;;-2.12;54.76;100750.34;3155018;28;20535;-66
2021/12/22 04:01:29;;;;;;;6.53;3.70;;;;;;;-2.14;54.69;100741.78;3156263;28;20322;-67
2021/12/22 04:03:02;;;;;;;7.22;3.90;;;;;;;-2.13;54.66;100740.09;3157270;28;20070;-66
2021/12/22 04:04:34;;;;;;;9.55;4.72;;;;;;;-2.21;54.68;100728.88;3154412;28;20138;-67
2021/12/22 04:06:05;;;;;;;12.90;5.40;;;;;;;-2.12;54.67;100750.34;3155779;28;20043;-67
2021/12/22 04:07:37;;;;;;;10.75;5.10;;;;;;;-2.20;54.84;100736.56;3154752;28;20040;-67
2021/12/22 04:09:09;;;;;;;11.75;5.30;;;;;;;-2.17;54.69;100738.31;3155408;28;20117;-67
2021/12/22 04:10:42;;;;;;;10.77;4.65;;;;;;;-2.14;54.66;100751.13;3157415;28;20109;-67
2021/12/22 04:12:15;;;;;;;9.63;4.75;;;;;;;-2.37;54.84;100713.22;3153829;28;20056;-68
2021/12/22 04:13:46;;;;;;;14.25;5.18;;;;;;;-2.19;54.59;100740.84;3156021;28;20056;-68
2021/12/22 04:15:19;;;;;;;8.45;4.40;;;;;;;-2.17;54.85;100744.28;3155964;28;20082;-68
2021/12/22 04:16:51;;;;;;;11.77;4.72;;;;;;;-2.17;54.63;100748.53;3155683;28;20482;-68
2021/12/22 04:18:23;;;;;;;9.32;4.47;;;;;;;-2.29;54.97;100736.34;3154795;28;20109;-68
2021/12/22 04:19:54;;;;;;;10.43;4.45;;;;;;;-2.18;54.62;100751.91;3154789;28;20052;-68
2021/12/22 04:21:26;;;;;;;11.82;5.38;;;;;;;-2.46;54.77;100714.72;3154385;28;20104;-68
2021/12/22 04:22:59;;;;;;;13.13;4.90;;;;;;;-2.27;54.82;100757.66;3157197;28;20169;-68
2021/12/22 04:24:31;;;;;;;9.35;4.90;;;;;;;-2.32;54.85;100764.34;3154983;28;20043;-68
2021/12/22 04:26:05;;;;;;;10.77;4.82;;;;;;;-2.54;54.89;100724.75;3154899;28;20546;-68
2021/12/22 04:27:37;;;;;;;13.45;5.38;;;;;;;-2.44;55.16;100764.94;3156386;28;20044;-68
2021/12/22 04:29:11;;;;;;;12.77;5.70;;;;;;;-2.46;55.38;100771.69;3155120;28;20055;-68
2021/12/22 04:30:45;;;;;;;;;;;;;;;-2.67;55.44;100776.28;3155953;28;20127;-68
2021/12/22 04:32:17;;;;;;;7.45;4.32;;;;;;;-2.68;55.85;100765.22;3155992;28;19939;-66
2021/12/22 04:33:49;;;;;;;7.88;4.35;;;;;;;-2.56;55.50;100770.63;3154445;28;20060;-66
2021/12/22 04:35:21;;;;;;;13.10;4.13;;;;;;;-2.81;55.43;100715.66;3156333;28;20052;-67
2021/12/22 04:36:52;;;;;;;8.00;4.25;;;;;;;-2.49;55.30;100763.97;3154319;28;20059;-67
2021/12/22 04:38:25;;;;;;;9.45;4.65;;;;;;;-2.89;55.31;100693.34;3153815;28;20044;-67
2021/12/22 04:39:56;;;;;;;9.98;4.53;;;;;;;-2.41;55.16;100771.81;3155993;28;20048;-67
2021/12/22 04:41:30;;;;;;;9.57;3.78;;;;;;;-2.43;55.23;100781.94;3153666;28;20052;-67
2021/12/22 04:43:02;;;;;;;;;;;;;;;-2.65;55.60;100783.16;3157165;28;20097;-66
2021/12/22 04:44:34;;;;;;;11.15;4.07;;;;;;;-2.67;56.08;100784.78;3154747;28;19927;-66
2021/12/22 04:46:06;;;;;;;8.88;3.75;;;;;;;-2.64;55.88;100778.91;3154823;28;20048;-66
2021/12/22 04:47:39;;;;;;;7.45;3.72;;;;;;;-2.61;55.87;100779.84;3153461;28;20122;-66
2021/12/22 04:49:11;;;;;;;12.32;4.10;;;;;;;-2.64;55.73;100771.25;3153978;28;20097;-65
2021/12/22 04:50:43;;;;;;;7.30;3.70;;;;;;;-2.57;55.67;100779.09;3154869;28;20696;-66
2021/12/22 04:52:18;;;;;;;7.18;3.42;;;;;;;-2.54;55.71;100779.16;3155230;28;20098;-67
2021/12/22 04:53:54;;;;;;;7.88;3.90;;;;;;;-2.53;55.73;100782.56;3154211;28;20084;-67
2021/12/22 04:55:28;;;;;;;8.15;3.80;;;;;;;-2.56;55.66;100774.84;3156077;28;20090;-67
2021/12/22 04:57:02;;;;;;;7.00;4.00;;;;;;;-2.48;55.65;100788.66;3154844;28;20044;-68
2021/12/22 04:58:34;;;;;;;9.38;3.97;;;;;;;-2.49;55.52;100786.06;3152394;28;20047;-66
2021/12/22 05:00:10;;;;;;;11.68;4.28;;;;;;;-2.56;55.44;100774.84;3154288;28;20495;-67
2021/12/22 05:01:42;;;;;;;13.15;4.50;;;;;;;-2.46;55.49;100791.22;3154653;28;20060;-67
2021/12/22 05:03:13;;;;;;;8.00;4.55;;;;;;;-2.48;55.58;100792.88;3156641;28;20051;-67
2021/12/22 05:04:44;;;;;;;10.10;4.57;;;;;;;-2.47;55.56;100789.50;3153739;28;20048;-67
2021/12/22 05:06:16;;;;;;;10.52;4.28;;;;;;;-2.54;55.80;100778.31;3154863;28;20100;-67
2021/12/22 05:07:48;;;;;;;11.95;5.10;;;;;;;-2.71;55.77;100749.00;3154538;28;20267;-66
2021/12/22 05:09:20;;;;;;;13.35;4.90;;;;;;;-2.60;55.86;100781.56;3154660;28;20450;-67
2021/12/22 05:10:52;;;;;;;11.00;4.85;;;;;;;-2.50;55.87;100786.91;3154970;28;20048;-66
2021/12/22 05:12:25;;;;;;;12.52;5.47;;;;;;;-2.55;55.81;100785.06;3154041;28;20139;-67
2021/12/22 05:13:57;;;;;;;10.63;5.13;;;;;;;-2.47;55.90;100802.28;3156899;28;20453;-67
2021/12/22 05:15:36;;;;;;;13.98;5.50;;;;;;;-2.47;55.95;100800.56;3154824;28;20051;-67
2021/12/22 05:17:17;;;;;;;13.40;4.93;;;;;;;-2.49;56.02;100806.47;3153966;28;20127;-67
2021/12/22 05:18:57;;;;;;;13.45;5.88;;;;;;;-2.50;56.13;100799.66;3153827;28;20204;-67
2021/12/22 05:20:29;;;;;;;11.73;5.20;;;;;;;-2.53;56.16;100805.53;3154260;28;20141;-68
2021/12/22 05:22:01;;;;;;;12.55;5.03;;;;;;;-2.56;55.93;100798.66;3153618;28;20517;-67
2021/12/22 05:23:33;;;;;;;13.50;5.43;;;;;;;-2.53;55.97;100806.38;3156260;28;20461;-67
2021/12/22 05:25:06;;;;;;;15.57;5.95;;;;;;;-2.56;56.19;100796.13;3154384;28;20051;-67
2021/12/22 05:26:38;;;;;;;;;;;;;;;-2.73;56.26;100802.47;3154673;28;20471;-66
2021/12/22 05:28:11;;;;;;;15.63;5.40;;;;;;;-2.69;56.38;100804.31;3155088;28;19951;-67
2021/12/22 05:29:43;;;;;;;10.40;5.20;;;;;;;-2.63;55.95;100808.66;3153643;28;20048;-66
2021/12/22 05:31:15;;;;;;;14.65;5.43;;;;;;;-2.62;56.20;100807.88;3156163;28;20089;-67
2021/12/22 05:32:47;;;;;;;15.65;5.70;;;;;;;-2.59;55.91;100813.03;3154705;28;20110;-67
2021/12/22 05:34:19;;;;;;;15.30;6.15;;;;;;;-2.61;56.04;100810.44;3155809;28;20093;-66
2021/12/22 05:35:51;;;;;;;19.23;6.68;;;;;;;-2.59;56.10;100807.94;3155291;28;20048;-67
2021/12/22 05:37:23;;;;;;;16.30;6.22;;;;;;;-2.62;55.99;100802.75;3153382;28;20093;-66
2021/12/22 05:38:54;;;;;;;16.95;6.78;;;;;;;-2.59;56.02;100816.44;3155162;28;20044;-66
2021/12/22 05:40:28;;;;;;;16.10;7.05;;;;;;;-2.55;55.95;100823.31;3155101;28;20112;-66
2021/12/22 05:42:01;;;;;;;22.10;9.52;;;;;;;-2.60;55.95;100818.97;3153674;28;20124;-67
2021/12/22 05:43:34;;;;;;;24.85;10.18;;;;;;;-2.82;55.93;100784.41;3155199;28;20196;-67
2021/12/22 05:45:06;;;;;;;21.23;10.63;;;;;;;-2.91;55.91;100766.34;3153578;28;20052;-67
2021/12/22 05:46:38;;;;;;;22.40;9.93;;;;;;;-2.57;55.99;100819.91;3155459;28;20130;-68
2021/12/22 05:48:10;;;;;;;20.77;9.93;;;;;;;-2.76;55.81;100792.22;3154005;28;20093;-67
2021/12/22 05:49:43;;;;;;;22.73;9.57;;;;;;;-2.55;55.62;100828.44;3153855;28;20040;-68
2021/12/22 05:51:15;;;;;;;27.98;10.35;;;;;;;-2.56;55.83;100829.25;3155991;28;20321;-67
2021/12/22 05:52:47;;;;;;;22.42;9.52;;;;;;;-2.52;55.75;100832.75;3155467;28;20068;-67
2021/12/22 05:54:19;;;;;;;25.88;8.73;;;;;;;-2.50;55.68;100830.25;3152903;28;20094;-66
2021/12/22 05:55:51;;;;;;;21.88;10.02;;;;;;;-2.49;55.74;100829.41;3155874;28;20052;-67
2021/12/22 05:57:23;;;;;;;24.35;9.13;;;;;;;-2.61;55.55;100809.56;3152819;28;20052;-70
2021/12/22 05:58:57;;;;;;;18.38;8.40;;;;;;;-2.47;55.71;100830.31;3154802;28;20044;-71
2021/12/22 06:00:29;;;;;;;22.40;10.90;;;;;;;-2.48;55.75;100841.31;3155184;28;20536;-71
2021/12/22 06:02:01;;;;;;;23.70;10.65;;;;;;;-2.49;55.67;100834.50;3155118;28;20052;-71
2021/12/22 06:03:36;;;;;;;19.98;10.13;;;;;;;-2.77;55.72;100787.94;3156262;28;20362;-71
2021/12/22 06:05:10;;;;;;;20.00;9.68;;;;;;;-2.47;55.66;100830.31;3153433;28;20048;-74
2021/12/22 06:06:43;;;;;;;17.05;9.10;;;;;;;-2.48;55.76;100829.47;3153818;28;20410;-74
2021/12/22 06:08:15;;;;;;;23.33;9.82;;;;;;;-2.49;55.70;100826.88;3153236;28;20131;-74
2021/12/22 06:09:47;;;;;;;23.80;10.93;;;;;;;-2.39;55.60;100841.59;3153833;28;20051;-72
2021/12/22 06:11:18;;;;;;;27.17;11.48;;;;;;;-2.38;55.68;100844.16;3154353;28;20109;-72
2021/12/22 06:12:50;;;;;;;25.27;10.63;;;;;;;-2.58;55.70;100805.41;3153339;28;20055;-72
2021/12/22 06:14:24;;;;;;;27.80;12.18;;;;;;;-2.31;55.79;100845.16;3154810;28;20109;-68
2021/12/22 06:15:55;;;;;;;28.60;11.30;;;;;;;-2.34;55.50;100837.44;3156067;28;20071;-69
2021/12/22 06:17:27;;;;;;;24.90;11.70;;;;;;;-2.19;55.76;100844.56;3153420;28;20462;-69
2021/12/22 06:19:03;;;;;;;28.17;11.80;;;;;;;-2.12;55.92;100849.88;3153933;28;20044;-68
2021/12/22 06:20:36;;;;;;;36.65;13.32;;;;;;;-2.04;56.00;100833.84;3153457;28;20040;-69
2021/12/22 06:22:08;;;;;;;28.25;12.60;;;;;;;-1.83;56.07;100857.34;3154183;28;20074;-69
2021/12/22 06:23:40;;;;;;;25.45;10.88;;;;;;;-1.67;56.15;100856.81;3154758;28;20574;-69
2021/12/22 06:25:12;;;;;;;25.88;10.35;;;;;;;-1.51;56.12;100855.47;3150452;28;20641;-66
2021/12/22 06:26:50;;;;;;;29.25;12.45;;;;;;;-1.37;55.82;100860.84;3150990;28;20441;-68
2021/12/22 06:28:21;;;;;;;30.73;13.20;;;;;;;-1.29;55.88;100851.66;3153756;28;20047;-68
2021/12/22 06:29:55;;;;;;;38.22;15.07;;;;;;;-1.19;55.59;100857.78;3156639;28;20056;-68
2021/12/22 06:31:27;;;;;;;51.22;18.77;;;;;;;-1.26;55.61;100841.50;3155643;28;20531;-64
2021/12/22 06:32:58;;;;;;;31.33;14.15;;;;;;;-1.03;55.45;100853.84;3157186;28;20054;-65
2021/12/22 06:34:30;;;;;;;38.22;17.48;;;;;;;-0.96;55.22;100853.13;3153942;28;20101;-62
2021/12/22 06:36:02;;;;;;;44.10;14.93;;;;;;;-0.89;54.93;100852.38;3157513;28;20056;-60
2021/12/22 06:37:34;;;;;;;33.38;14.77;;;;;;;-0.89;54.90;100838.75;3156426;28;20546;-61
2021/12/22 06:39:07;;;;;;;68.05;24.70;;;;;;;-0.71;54.89;100852.75;3152048;28;20048;-61
2021/12/22 06:40:38;;;;;;;36.53;16.52;;;;;;;-0.58;54.68;100848.69;3153930;28;20045;-62
2021/12/22 06:42:10;;;;;;;23.33;10.57;;;;;;;-0.46;54.32;100850.59;3156360;28;20055;-70
2021/12/22 06:43:42;;;;;;;28.73;10.40;;;;;;;-0.35;54.03;100845.66;3154162;28;20414;-70
2021/12/22 06:45:16;;;;;;;22.63;9.85;;;;;;;-0.22;53.56;100844.16;3156373;28;20069;-67
2021/12/22 06:46:47;;;;;;;17.48;9.10;;;;;;;-0.11;53.36;100855.41;3156091;28;20056;-73
2021/12/22 06:48:19;;;;;;;18.45;8.77;;;;;;;-0.31;53.02;100798.78;3158696;28;20574;-70
2021/12/22 06:49:51;;;;;;;19.15;8.73;;;;;;;0.12;52.82;100845.47;3154345;28;20035;-68
2021/12/22 06:51:23;;;;;;;22.33;9.05;;;;;;;0.22;52.60;100852.47;3157673;28;20056;-72
2021/12/22 06:52:55;;;;;;;19.05;9.48;;;;;;;0.32;52.28;100850.88;3156459;28;20043;-68
2021/12/22 06:54:27;;;;;;;16.02;8.63;;;;;;;0.42;52.05;100845.91;3155694;28;20123;-69
2021/12/22 06:55:59;;;;;;;16.13;7.97;;;;;;;0.55;51.85;100843.50;3158075;28;20440;-70
2021/12/22 06:57:32;;;;;;;23.58;8.02;;;;;;;0.61;51.63;100853.84;3150787;28;20056;-70
2021/12/22 06:59:04;;;;;;;;;;;;;;;0.47;51.56;100855.34;3156493;28;20597;-70
2021/12/22 07:00:37;;;;;;;13.88;7.40;;;;;;;0.52;51.32;100846.88;3152357;28;19920;-74
2021/12/22 07:02:09;;;;;;;15.85;8.70;;;;;;;0.54;50.94;100834.97;3155563;28;20570;-74
2021/12/22 07:03:41;;;;;;;19.20;8.48;;;;;;;0.65;50.90;100846.22;3150505;28;20062;-73
2021/12/22 07:05:13;;;;;;;16.00;7.68;;;;;;;0.56;50.59;100820.47;3150247;28;20048;-73
2021/12/22 07:06:45;;;;;;;15.07;7.97;;;;;;;0.71;50.42;100829.16;3152540;28;20048;-73
2021/12/22 07:08:17;;;;;;;16.60;7.90;;;;;;;0.87;50.44;100836.19;3151581;28;20052;-74
2021/12/22 07:09:49;;;;;;;19.80;8.52;;;;;;;0.98;50.05;100838.88;3154358;28;20602;-75
2021/12/22 07:11:21;;;;;;;16.48;7.68;;;;;;;0.96;49.76;100830.31;3151629;28;20047;-74
2021/12/22 07:12:53;;;;;;;14.65;8.40;;;;;;;1.06;49.55;100845.78;3152860;28;20052;-74
2021/12/22 07:14:24;;;;;;;14.40;7.35;;;;;;;1.04;49.30;100838.94;3152267;28;20051;-74
2021/12/22 07:15:58;;;;;;;19.35;9.20;;;;;;;1.10;49.17;100847.56;3150273;28;20052;-74